Time;durP1;ratioP1;P1;durP2;ratioP2;P2;SDS_P1;SDS_P2;PMS_P1;PMS_P2;Temp;Humidity;BMP_temperature;BMP_pressure;BME280_temperature;BME280_humidity;BME280_pressure;Samples;Min_cycle;Max_cycle;Signal;HPM_P1;HPM_P2
2024/01/07 00:02:09;;;;;;;145.63;137.10;;;;;;;;;;5029369;28;20450;-71
2024/01/07 00:04:36;;;;;;;141.68;133.45;;;;;;;;;;5034900;28;20431;-71
2024/01/07 00:07:05;;;;;;;144.65;136.38;;;;;;;;;;5043002;28;20494;-72
2024/01/07 00:09:34;;;;;;;147.85;139.20;;;;;;;;;;5046914;28;20469;-72
2024/01/07 00:12:05;;;;;;;138.82;130.88;;;;;;;;;;5044423;28;20433;-72
2024/01/07 00:14:34;;;;;;;157.60;148.27;;;;;;;;;;5039251;28;20460;-72
2024/01/07 00:17:01;;;;;;;159.55;150.27;;;;;;;;;;5035980;28;20504;-72
2024/01/07 00:19:31;;;;;;;139.43;131.20;;;;;;;;;;5037268;28;20468;-72
2024/01/07 00:21:59;;;;;;;134.00;126.15;;;;;;;;;;5041527;28;20886;-72
2024/01/07 00:24:28;;;;;;;150.68;141.95;;;;;;;;;;5029906;28;20785;-72
2024/01/07 00:26:55;;;;;;;141.27;133.18;;;;;;;;;;5042344;28;20956;-72
2024/01/07 00:29:22;;;;;;;131.13;123.68;;;;;;;;;;5043985;28;20433;-72
2024/01/07 00:31:49;;;;;;;125.97;118.72;;;;;;;;;;5038297;28;20483;-72
2024/01/07 00:34:17;;;;;;;130.50;123.13;;;;;;;;;;5041354;28;21267;-72
2024/01/07 00:36:44;;;;;;;134.10;126.50;;;;;;;;;;5038653;28;20876;-72
2024/01/07 00:39:11;;;;;;;138.53;130.63;;;;;;;;;;5044102;28;20429;-72
2024/01/07 00:41:39;;;;;;;156.37;147.57;;;;;;;;;;5035510;28;20489;-72
2024/01/07 00:44:06;;;;;;;133.02;125.38;;;;;;;;;;5035370;28;20499;-72
2024/01/07 00:46:33;;;;;;;147.40;138.95;;;;;;;;;;5036979;28;21142;-72
2024/01/07 00:49:00;;;;;;;142.38;134.15;;;;;;;;;;5031721;28;20508;-72
2024/01/07 00:51:28;;;;;;;144.52;136.35;;;;;;;;;;5043875;28;20504;-72
2024/01/07 00:53:55;;;;;;;205.57;194.75;;;;;;;;;;5039019;28;20433;-72
2024/01/07 00:56:28;;;;;;;132.70;125.07;;;;;;;;;;5031290;28;20492;-71
2024/01/07 00:58:55;;;;;;;132.07;124.43;;;;;;;;;;5046102;28;20425;-71
2024/01/07 01:01:22;;;;;;;117.38;110.47;;;;;;;;;;5041353;28;20830;-71
2024/01/07 01:03:49;;;;;;;116.78;109.88;;;;;;;;;;5032117;28;20485;-71
2024/01/07 01:06:17;;;;;;;116.25;109.43;;;;;;;;;;5043252;28;20511;-72
2024/01/07 01:08:44;;;;;;;119.25;112.20;;;;;;;;;;5043486;28;20431;-72
2024/01/07 01:11:11;;;;;;;120.88;113.93;;;;;;;;;;5042908;28;20489;-71
2024/01/07 01:13:39;;;;;;;123.15;115.68;;;;;;;;;;5045039;28;20465;-72
2024/01/07 01:16:09;;;;;;;121.60;114.35;;;;;;;;;;5035017;28;20431;-72
2024/01/07 01:18:36;;;;;;;125.97;118.68;;;;;;;;;;5043499;28;20469;-72
2024/01/07 01:21:04;;;;;;;125.50;118.05;;;;;;;;;;5048831;28;20927;-72
2024/01/07 01:23:31;;;;;;;120.60;113.40;;;;;;;;;;5039064;28;20971;-72
2024/01/07 01:25:58;;;;;;;119.90;112.90;;;;;;;;;;5040915;28;20900;-72
2024/01/07 01:28:26;;;;;;;122.05;114.82;;;;;;;;;;5036133;28;20487;-72
2024/01/07 01:30:56;;;;;;;118.97;111.95;;;;;;;;;;5035591;28;20462;-72
2024/01/07 01:33:23;;;;;;;120.85;113.45;;;;;;;;;;5039921;28;20424;-72
2024/01/07 01:35:51;;;;;;;132.75;125.05;;;;;;;;;;5042796;28;20438;-72
2024/01/07 01:38:18;;;;;;;125.17;117.63;;;;;;;;;;5042743;28;20431;-72
2024/01/07 01:40:51;;;;;;;125.50;118.05;;;;;;;;;;5043645;28;20917;-73
2024/01/07 01:43:25;;;;;;;129.30;121.68;;;;;;;;;;5045323;28;20506;-72
2024/01/07 01:45:59;;;;;;;121.00;113.75;;;;;;;;;;5042006;28;20490;-72
2024/01/07 01:48:33;;;;;;;125.67;118.27;;;;;;;;;;5034390;28;20432;-72
2024/01/07 01:51:00;;;;;;;126.15;118.75;;;;;;;;;;5041526;28;20435;-71
2024/01/07 01:53:27;;;;;;;128.32;120.72;;;;;;;;;;5040259;28;20437;-72
2024/01/07 01:55:57;;;;;;;126.78;119.40;;;;;;;;;;5036833;28;20461;-71
2024/01/07 01:58:24;;;;;;;123.22;116.03;;;;;;;;;;5029083;28;20429;-72
2024/01/07 02:00:51;;;;;;;134.73;126.93;;;;;;;;;;5036881;28;20462;-72
2024/01/07 02:03:19;;;;;;;127.60;120.10;;;;;;;;;;5038552;28;20425;-72
2024/01/07 02:05:46;;;;;;;133.63;125.93;;;;;;;;;;5036083;28;20493;-71
2024/01/07 02:08:13;;;;;;;124.70;117.35;;;;;;;;;;5031138;28;20434;-71
2024/01/07 02:10:41;;;;;;;124.50;117.15;;;;;;;;;;5039068;28;20500;-71
2024/01/07 02:13:09;;;;;;;111.70;105.18;;;;;;;;;;5030917;28;20580;-71
2024/01/07 02:15:37;;;;;;;131.18;123.63;;;;;;;;;;5041029;28;20445;-71
2024/01/07 02:18:04;;;;;;;118.50;111.65;;;;;;;;;;5041668;28;20497;-71
2024/01/07 02:20:36;;;;;;;120.32;113.30;;;;;;;;;;5032092;28;20431;-71
2024/01/07 02:23:04;;;;;;;103.63;97.65;;;;;;;;;;5045020;28;20857;-71
2024/01/07 02:25:38;;;;;;;121.88;114.80;;;;;;;;;;5036763;28;20437;-70
2024/01/07 02:28:05;;;;;;;135.40;127.65;;;;;;;;;;5043752;28;20517;-71
2024/01/07 02:30:33;;;;;;;124.22;116.95;;;;;;;;;;5040990;28;20439;-71
2024/01/07 02:33:04;;;;;;;122.15;115.05;;;;;;;;;;5034372;28;20429;-71
2024/01/07 02:35:32;;;;;;;125.15;117.90;;;;;;;;;;5033844;28;20441;-71
2024/01/07 02:37:59;;;;;;;117.00;110.00;;;;;;;;;;5035085;28;20553;-71
2024/01/07 02:40:26;;;;;;;113.28;106.43;;;;;;;;;;5028648;28;20477;-71
2024/01/07 02:42:55;;;;;;;85.65;80.43;;;;;;;;;;5046801;28;20900;-71
2024/01/07 02:45:23;;;;;;;99.75;93.90;;;;;;;;;;5038484;28;20978;-72
2024/01/07 02:47:50;;;;;;;117.43;110.43;;;;;;;;;;5045501;28;20433;-72
2024/01/07 02:50:18;;;;;;;114.20;107.30;;;;;;;;;;5039604;28;20454;-72
2024/01/07 02:52:48;;;;;;;122.38;115.05;;;;;;;;;;5039911;28;21174;-72
2024/01/07 02:55:18;;;;;;;122.27;115.10;;;;;;;;;;5039173;28;20878;-72
2024/01/07 02:57:45;;;;;;;121.27;114.00;;;;;;;;;;5035724;28;20453;-72
2024/01/07 03:00:13;;;;;;;117.18;110.07;;;;;;;;;;5031336;28;20428;-72
2024/01/07 03:02:40;;;;;;;119.45;112.32;;;;;;;;;;5039557;28;20483;-71
2024/01/07 03:05:08;;;;;;;118.75;111.53;;;;;;;;;;5037506;28;20459;-71
2024/01/07 03:07:39;;;;;;;102.20;96.05;;;;;;;;;;5035289;28;20424;-71
2024/01/07 03:10:07;;;;;;;106.45;100.18;;;;;;;;;;5043756;28;20451;-71
2024/01/07 03:12:34;;;;;;;108.93;102.38;;;;;;;;;;5034724;28;20442;-71
2024/01/07 03:15:05;;;;;;;113.30;106.60;;;;;;;;;;5038098;28;20427;-71
2024/01/07 03:17:33;;;;;;;118.00;110.82;;;;;;;;;;5036472;28;21245;-71
2024/01/07 03:20:00;;;;;;;114.75;108.15;;;;;;;;;;5043392;28;20426;-72
2024/01/07 03:22:28;;;;;;;110.40;103.88;;;;;;;;;;5037341;28;20900;-72
2024/01/07 03:24:55;;;;;;;111.80;105.13;;;;;;;;;;5037940;28;20527;-71
2024/01/07 03:27:22;;;;;;;84.35;79.25;;;;;;;;;;5030892;28;20438;-71
2024/01/07 03:29:49;;;;;;;110.78;104.25;;;;;;;;;;5042638;28;20445;-72
2024/01/07 03:32:17;;;;;;;111.05;104.35;;;;;;;;;;5042190;28;20456;-72
2024/01/07 03:34:44;;;;;;;118.18;111.18;;;;;;;;;;5035878;28;20430;-72
2024/01/07 03:37:12;;;;;;;119.10;111.87;;;;;;;;;;5042981;28;20514;-72
2024/01/07 03:39:39;;;;;;;117.10;110.10;;;;;;;;;;5046077;28;20422;-72
2024/01/07 03:42:11;;;;;;;107.53;101.05;;;;;;;;;;5040619;28;20484;-73
2024/01/07 03:44:39;;;;;;;91.57;86.03;;;;;;;;;;5039442;28;20429;-72
2024/01/07 03:47:06;;;;;;;109.72;103.30;;;;;;;;;;5041613;28;21133;-72
2024/01/07 03:49:42;;;;;;;104.20;98.10;;;;;;;;;;5043309;28;20429;-72
2024/01/07 03:52:09;;;;;;;118.55;111.65;;;;;;;;;;5043747;28;20435;-72
2024/01/07 03:54:37;;;;;;;124.03;116.90;;;;;;;;;;5041910;28;20429;-71
2024/01/07 03:57:04;;;;;;;118.88;111.85;;;;;;;;;;5040464;28;20430;-71
2024/01/07 03:59:31;;;;;;;104.95;98.85;;;;;;;;;;5046060;28;20452;-71
2024/01/07 04:01:58;;;;;;;114.77;107.67;;;;;;;;;;5033302;28;20564;-72
2024/01/07 04:04:25;;;;;;;94.55;88.45;;;;;;;;;;5039055;28;20544;-71
2024/01/07 04:06:52;;;;;;;74.35;69.63;;;;;;;;;;5047906;28;20418;-71
2024/01/07 04:09:20;;;;;;;79.20;74.37;;;;;;;;;;5037194;28;20431;-71
2024/01/07 04:11:47;;;;;;;85.05;79.82;;;;;;;;;;5036503;28;20469;-72
2024/01/07 04:14:15;;;;;;;82.50;77.38;;;;;;;;;;5040662;28;20429;-71
2024/01/07 04:16:42;;;;;;;87.82;82.47;;;;;;;;;;5043886;28;21060;-71
2024/01/07 04:19:11;;;;;;;89.80;84.10;;;;;;;;;;5033790;28;20500;-71
2024/01/07 04:21:38;;;;;;;94.90;89.07;;;;;;;;;;5038970;28;20427;-70
2024/01/07 04:24:05;;;;;;;92.50;87.00;;;;;;;;;;5031598;28;20424;-71
2024/01/07 04:26:35;;;;;;;98.40;92.32;;;;;;;;;;5036404;28;21037;-71
2024/01/07 04:29:06;;;;;;;93.40;87.90;;;;;;;;;;5040439;28;20424;-71
2024/01/07 04:31:33;;;;;;;95.97;90.25;;;;;;;;;;5031534;28;20429;-71
2024/01/07 04:34:00;;;;;;;101.07;95.10;;;;;;;;;;5046094;28;20436;-72
2024/01/07 04:36:31;;;;;;;100.85;94.65;;;;;;;;;;5030051;28;20431;-71
2024/01/07 04:38:58;;;;;;;97.55;91.85;;;;;;;;;;5036140;28;20433;-71
2024/01/07 04:41:25;;;;;;;98.85;92.93;;;;;;;;;;5046112;28;20428;-71
2024/01/07 04:43:52;;;;;;;88.65;83.35;;;;;;;;;;5042547;28;20479;-71
2024/01/07 04:46:20;;;;;;;77.60;72.78;;;;;;;;;;5037680;28;20929;-72
2024/01/07 04:48:47;;;;;;;85.93;80.60;;;;;;;;;;5049569;28;20429;-71
2024/01/07 04:51:14;;;;;;;93.03;87.43;;;;;;;;;;5042289;28;20427;-71
2024/01/07 04:53:41;;;;;;;88.82;83.50;;;;;;;;;;5043930;28;20514;-71
2024/01/07 04:56:08;;;;;;;84.68;79.55;;;;;;;;;;5042949;28;20438;-71
2024/01/07 04:58:38;;;;;;;83.75;78.65;;;;;;;;;;5037095;28;20421;-71
2024/01/07 05:01:05;;;;;;;91.35;85.90;;;;;;;;;;5032157;28;20488;-71
2024/01/07 05:03:33;;;;;;;101.22;95.07;;;;;;;;;;5047568;28;20433;-71
2024/01/07 05:06:01;;;;;;;103.63;97.45;;;;;;;;;;5031449;28;20427;-71
2024/01/07 05:08:29;;;;;;;138.20;131.10;;;;;;;;;;5034176;28;20431;-71
2024/01/07 05:10:59;;;;;;;97.75;92.25;;;;;;;;;;5048084;28;20923;-71
2024/01/07 05:13:26;;;;;;;135.52;128.20;;;;;;;;;;5031088;28;20439;-71
2024/01/07 05:15:53;;;;;;;117.70;111.17;;;;;;;;;;5036111;28;21202;-71
2024/01/07 05:18:22;;;;;;;138.93;131.77;;;;;;;;;;5033130;28;20830;-71
2024/01/07 05:20:52;;;;;;;123.82;117.15;;;;;;;;;;5046241;28;20432;-71
2024/01/07 05:23:19;;;;;;;180.82;171.70;;;;;;;;;;5045348;28;20936;-70
2024/01/07 05:25:47;;;;;;;198.50;188.27;;;;;;;;;;5041356;28;20583;-71
2024/01/07 05:28:14;;;;;;;130.93;123.70;;;;;;;;;;5039911;28;20435;-71
2024/01/07 05:30:45;;;;;;;99.05;93.00;;;;;;;;;;5038382;28;20437;-71
2024/01/07 05:33:12;;;;;;;102.95;96.80;;;;;;;;;;5044269;28;20895;-70
2024/01/07 05:35:39;;;;;;;119.43;112.47;;;;;;;;;;5048758;28;20533;-70
2024/01/07 05:38:07;;;;;;;122.28;115.47;;;;;;;;;;5035633;28;20429;-70
2024/01/07 05:40:34;;;;;;;138.57;130.98;;;;;;;;;;5043077;28;21463;-70
2024/01/07 05:43:01;;;;;;;181.45;171.68;;;;;;;;;;5037636;28;20804;-70
2024/01/07 05:45:28;;;;;;;177.45;167.90;;;;;;;;;;5041076;28;20435;-71
2024/01/07 05:47:55;;;;;;;149.27;141.18;;;;;;;;;;5046995;28;20441;-71
2024/01/07 05:50:23;;;;;;;154.93;146.43;;;;;;;;;;5048689;28;20429;-71
2024/01/07 05:52:50;;;;;;;163.63;154.75;;;;;;;;;;5037989;28;20516;-71
2024/01/07 05:55:17;;;;;;;125.43;118.32;;;;;;;;;;5030548;28;20521;-71
2024/01/07 05:57:47;;;;;;;119.30;112.35;;;;;;;;;;5045776;28;20429;-71
2024/01/07 06:00:17;;;;;;;126.45;118.72;;;;;;;;;;5039642;28;20434;-71
2024/01/07 06:02:44;;;;;;;124.63;117.50;;;;;;;;;;5042540;28;20491;-71
2024/01/07 06:05:11;;;;;;;128.30;120.85;;;;;;;;;;5045446;28;20429;-71
2024/01/07 06:07:39;;;;;;;162.05;153.27;;;;;;;;;;5041413;28;20465;-71
2024/01/07 06:10:09;;;;;;;132.03;124.47;;;;;;;;;;5035093;28;20909;-71
2024/01/07 06:12:37;;;;;;;145.40;137.13;;;;;;;;;;5034754;28;20923;-71
2024/01/07 06:15:05;;;;;;;188.20;178.40;;;;;;;;;;5045931;28;20499;-71
2024/01/07 06:17:32;;;;;;;254.60;241.80;;;;;;;;;;5036181;28;20904;-71
2024/01/07 06:19:59;;;;;;;103.80;97.63;;;;;;;;;;5045514;28;20435;-71
2024/01/07 06:22:27;;;;;;;103.07;97.07;;;;;;;;;;5041859;28;20499;-71
2024/01/07 06:24:54;;;;;;;134.85;127.07;;;;;;;;;;5037538;28;20429;-70
2024/01/07 06:27:21;;;;;;;134.82;127.07;;;;;;;;;;5047643;28;20922;-71
2024/01/07 06:29:51;;;;;;;138.50;130.37;;;;;;;;;;5044534;28;20476;-70
2024/01/07 06:32:19;;;;;;;181.60;172.15;;;;;;;;;;5044045;28;20461;-71
2024/01/07 06:34:46;;;;;;;117.45;110.43;;;;;;;;;;5039839;28;20421;-70
2024/01/07 06:37:16;;;;;;;112.75;106.25;;;;;;;;;;5033178;28;20433;-71
2024/01/07 06:39:46;;;;;;;97.57;91.63;;;;;;;;;;5032212;28;20457;-70
2024/01/07 06:42:15;;;;;;;103.75;97.53;;;;;;;;;;5041543;28;20433;-70
2024/01/07 06:44:42;;;;;;;103.03;96.88;;;;;;;;;;5037865;28;20435;-70
2024/01/07 06:47:09;;;;;;;103.90;97.78;;;;;;;;;;5038174;28;20932;-71
2024/01/07 06:49:37;;;;;;;110.47;104.03;;;;;;;;;;5038321;28;20527;-69
2024/01/07 06:52:04;;;;;;;104.75;98.47;;;;;;;;;;5038850;28;20435;-70
2024/01/07 06:54:31;;;;;;;97.63;91.78;;;;;;;;;;5038409;28;20481;-70
2024/01/07 06:56:59;;;;;;;114.72;107.63;;;;;;;;;;5046179;28;20429;-70
2024/01/07 06:59:26;;;;;;;123.22;116.13;;;;;;;;;;5041234;28;20425;-69
2024/01/07 07:01:55;;;;;;;155.00;146.15;;;;;;;;;;5034105;28;20435;-70
2024/01/07 07:04:22;;;;;;;170.38;161.25;;;;;;;;;;5049014;28;20759;-70
2024/01/07 07:06:50;;;;;;;133.23;125.72;;;;;;;;;;5031263;28;21162;-70
2024/01/07 07:09:17;;;;;;;127.50;120.22;;;;;;;;;;5041918;28;20433;-71
2024/01/07 07:11:44;;;;;;;115.50;108.97;;;;;;;;;;5032475;28;20481;-70
2024/01/07 07:14:11;;;;;;;147.57;139.20;;;;;;;;;;5037299;28;20442;-70
2024/01/07 07:16:39;;;;;;;177.73;168.15;;;;;;;;;;5032216;28;20437;-70
2024/01/07 07:19:06;;;;;;;154.00;145.68;;;;;;;;;;5035730;28;20436;-70
2024/01/07 07:21:33;;;;;;;120.75;113.78;;;;;;;;;;5030344;28;20438;-70
2024/01/07 07:24:00;;;;;;;108.15;101.80;;;;;;;;;;5043858;28;20425;-70
2024/01/07 07:26:28;;;;;;;106.93;100.65;;;;;;;;;;5037078;28;20466;-70
2024/01/07 07:28:55;;;;;;;139.50;132.02;;;;;;;;;;5037262;28;20470;-70
2024/01/07 07:31:25;;;;;;;119.95;113.10;;;;;;;;;;5031711;28;20500;-70
2024/01/07 07:33:52;;;;;;;120.55;113.40;;;;;;;;;;5046186;28;20882;-70
2024/01/07 07:36:20;;;;;;;122.35;115.20;;;;;;;;;;5041519;28;20439;-69
2024/01/07 07:38:47;;;;;;;209.77;199.23;;;;;;;;;;5036798;28;20429;-70
2024/01/07 07:41:14;;;;;;;191.00;180.68;;;;;;;;;;5036037;28;20438;-69
2024/01/07 07:43:41;;;;;;;182.13;172.30;;;;;;;;;;5034590;28;20431;-70
2024/01/07 07:46:08;;;;;;;219.73;208.43;;;;;;;;;;5044731;28;21000;-70
2024/01/07 07:48:39;;;;;;;256.48;243.23;;;;;;;;;;5036565;28;20572;-70
2024/01/07 07:51:06;;;;;;;261.65;248.23;;;;;;;;;;5038328;28;20513;-70
2024/01/07 07:53:33;;;;;;;240.75;228.50;;;;;;;;;;5038511;28;20427;-70
2024/01/07 07:56:02;;;;;;;281.05;266.90;;;;;;;;;;5042306;28;20433;-70
2024/01/07 07:58:29;;;;;;;177.43;168.10;;;;;;;;;;5037528;28;20429;-70
2024/01/07 08:00:56;;;;;;;173.83;164.73;;;;;;;;;;5033534;28;20882;-70
2024/01/07 08:03:23;;;;;;;244.43;232.10;;;;;;;;;;5037770;28;20445;-70
2024/01/07 08:05:51;;;;;;;272.30;258.55;;;;;;;;;;5042009;28;20441;-70
2024/01/07 08:08:18;;;;;;;168.95;160.10;;;;;;;;;;5038226;28;20466;-70
2024/01/07 08:10:45;;;;;;;259.67;246.68;;;;;;;;;;5043940;28;20455;-70
2024/01/07 08:13:13;;;;;;;183.68;174.15;;;;;;;;;;5040445;28;20434;-70
2024/01/07 08:15:41;;;;;;;180.40;171.00;;;;;;;;;;5036265;28;20545;-70
2024/01/07 08:18:15;;;;;;;158.13;148.93;;;;;;;;;;5038275;28;20435;-70
2024/01/07 08:20:43;;;;;;;103.75;97.50;;;;;;;;;;5043322;28;20491;-70
2024/01/07 08:23:10;;;;;;;190.02;180.05;;;;;;;;;;5046466;28;20447;-70
2024/01/07 08:25:37;;;;;;;66.20;62.10;;;;;;;;;;5042796;28;20437;-70
2024/01/07 08:28:04;;;;;;;233.13;221.43;;;;;;;;;;5041111;28;20464;-70
2024/01/07 08:30:32;;;;;;;244.90;232.60;;;;;;;;;;5048912;28;20425;-71
2024/01/07 08:32:59;;;;;;;152.25;143.93;;;;;;;;;;5043270;28;20536;-70
2024/01/07 08:35:26;;;;;;;113.20;106.32;;;;;;;;;;5050851;28;20425;-70
2024/01/07 08:37:54;;;;;;;131.88;125.03;;;;;;;;;;5042421;28;20976;-70
2024/01/07 08:40:27;;;;;;;207.80;197.23;;;;;;;;;;5041945;28;20429;-70
2024/01/07 08:42:54;;;;;;;86.55;81.35;;;;;;;;;;5043331;28;20433;-70
2024/01/07 08:45:22;;;;;;;195.25;185.13;;;;;;;;;;5039951;28;20980;-70
2024/01/07 08:47:50;;;;;;;190.17;180.57;;;;;;;;;;5045404;28;20435;-70
2024/01/07 08:50:20;;;;;;;204.23;193.82;;;;;;;;;;5040406;28;21117;-70
2024/01/07 08:52:47;;;;;;;217.90;206.82;;;;;;;;;;5038220;28;20425;-70
2024/01/07 08:55:15;;;;;;;220.35;209.23;;;;;;;;;;5042165;28;20439;-70
2024/01/07 08:57:43;;;;;;;205.70;195.27;;;;;;;;;;5039446;28;20440;-70
2024/01/07 09:00:11;;;;;;;230.23;218.57;;;;;;;;;;5048449;28;20947;-70
2024/01/07 09:02:40;;;;;;;221.88;210.88;;;;;;;;;;5044769;28;20458;-70
2024/01/07 09:05:11;;;;;;;193.05;183.35;;;;;;;;;;5043555;28;20433;-70
2024/01/07 09:07:39;;;;;;;194.40;184.65;;;;;;;;;;5037835;28;20438;-70
2024/01/07 09:10:10;;;;;;;192.27;182.55;;;;;;;;;;5034662;28;20435;-70
2024/01/07 09:12:38;;;;;;;222.70;211.55;;;;;;;;;;5046184;28;20429;-70
2024/01/07 09:15:10;;;;;;;204.50;194.13;;;;;;;;;;5036909;28;20505;-70
2024/01/07 09:17:37;;;;;;;199.02;188.90;;;;;;;;;;5048876;28;20520;-70
2024/01/07 09:20:07;;;;;;;199.02;188.77;;;;;;;;;;5037858;28;20437;-70
2024/01/07 09:22:35;;;;;;;206.10;195.60;;;;;;;;;;5039677;28;20430;-70
2024/01/07 09:25:05;;;;;;;190.00;180.05;;;;;;;;;;5033102;28;20528;-71
2024/01/07 09:27:33;;;;;;;195.52;185.55;;;;;;;;;;5038671;28;20488;-71
2024/01/07 09:30:05;;;;;;;212.13;200.98;;;;;;;;;;5040803;28;20431;-70
2024/01/07 09:32:32;;;;;;;208.13;196.73;;;;;;;;;;5042186;28;20521;-70
2024/01/07 09:35:05;;;;;;;220.85;209.70;;;;;;;;;;5043339;28;20441;-70
2024/01/07 09:37:33;;;;;;;221.65;210.63;;;;;;;;;;5040517;28;20433;-71
2024/01/07 09:40:00;;;;;;;222.82;211.63;;;;;;;;;;5045923;28;20426;-71
2024/01/07 09:42:30;;;;;;;257.17;244.13;;;;;;;;;;5030433;28;20431;-71
2024/01/07 09:44:59;;;;;;;250.82;238.25;;;;;;;;;;5034839;28;20433;-70
2024/01/07 09:47:27;;;;;;;243.82;231.65;;;;;;;;;;5046339;28;21104;-71
2024/01/07 09:49:54;;;;;;;220.70;208.98;;;;;;;;;;5044387;28;20436;-70
2024/01/07 09:52:21;;;;;;;228.00;216.38;;;;;;;;;;5037127;28;20457;-71
2024/01/07 09:54:52;;;;;;;226.63;214.68;;;;;;;;;;5040791;28;20495;-70
2024/01/07 09:57:20;;;;;;;179.40;170.07;;;;;;;;;;5041967;28;20874;-69
2024/01/07 09:59:52;;;;;;;222.32;210.98;;;;;;;;;;5038204;28;20421;-70
2024/01/07 10:02:23;;;;;;;249.27;236.48;;;;;;;;;;5040324;28;20517;-70
2024/01/07 10:04:50;;;;;;;261.73;248.90;;;;;;;;;;5041059;28;20437;-70
2024/01/07 10:07:18;;;;;;;242.55;230.57;;;;;;;;;;5039881;28;20785;-70
2024/01/07 10:09:48;;;;;;;251.50;239.15;;;;;;;;;;5040346;28;20498;-70
2024/01/07 10:12:17;;;;;;;247.52;235.25;;;;;;;;;;5041085;28;20433;-70
2024/01/07 10:14:46;;;;;;;244.02;232.00;;;;;;;;;;5037251;28;20932;-71
2024/01/07 10:17:16;;;;;;;67.50;63.30;;;;;;;;;;5034990;28;20433;-70
2024/01/07 10:19:45;;;;;;;208.57;198.27;;;;;;;;;;5033706;28;20424;-70
2024/01/07 10:22:13;;;;;;;234.05;222.38;;;;;;;;;;5039613;28;20940;-70
2024/01/07 10:24:41;;;;;;;124.78;117.55;;;;;;;;;;5043638;28;20951;-70
2024/01/07 10:27:09;;;;;;;223.25;212.30;;;;;;;;;;5046405;28;20523;-70
2024/01/07 10:29:36;;;;;;;239.85;227.95;;;;;;;;;;5037899;28;20435;-70
2024/01/07 10:32:05;;;;;;;200.48;190.27;;;;;;;;;;5038713;28;20443;-70
2024/01/07 10:34:33;;;;;;;221.85;210.40;;;;;;;;;;5041377;28;20429;-70
2024/01/07 10:37:01;;;;;;;241.95;229.98;;;;;;;;;;5033947;28;20423;-70
2024/01/07 10:39:28;;;;;;;214.38;203.50;;;;;;;;;;5037439;28;20488;-70
2024/01/07 10:41:59;;;;;;;113.70;107.23;;;;;;;;;;5040499;28;20430;-71
2024/01/07 10:44:27;;;;;;;124.07;117.13;;;;;;;;;;5044365;28;20429;-70
2024/01/07 10:46:58;;;;;;;132.73;125.40;;;;;;;;;;5042499;28;20449;-70
2024/01/07 10:49:26;;;;;;;124.20;117.40;;;;;;;;;;5034345;28;20482;-70
2024/01/07 10:51:53;;;;;;;135.98;128.32;;;;;;;;;;5043087;28;20800;-70
2024/01/07 10:54:22;;;;;;;137.20;129.70;;;;;;;;;;5043484;28;20494;-69
2024/01/07 10:56:49;;;;;;;122.43;115.50;;;;;;;;;;5034680;28;20898;-70
2024/01/07 10:59:16;;;;;;;107.33;100.73;;;;;;;;;;5045247;28;20452;-70
2024/01/07 11:01:44;;;;;;;154.45;146.05;;;;;;;;;;5039941;28;20422;-70
2024/01/07 11:04:15;;;;;;;203.02;192.68;;;;;;;;;;5038317;28;20484;-71
2024/01/07 11:06:46;;;;;;;214.77;203.73;;;;;;;;;;5040849;28;21044;-70
2024/01/07 11:09:23;;;;;;;143.98;135.85;;;;;;;;;;5038053;28;20433;-70
2024/01/07 11:11:51;;;;;;;130.05;122.50;;;;;;;;;;5035897;28;20957;-70
2024/01/07 11:14:36;;;;;;;134.05;126.38;;;;;;;;;;5044061;28;20461;-70
2024/01/07 11:17:04;;;;;;;135.05;127.15;;;;;;;;;;5039208;28;20438;-70
2024/01/07 11:19:31;;;;;;;150.40;141.90;;;;;;;;;;5043695;28;20950;-70
2024/01/07 11:22:17;;;;;;;133.88;126.20;;;;;;;;;;5039151;28;20514;-71
2024/01/07 11:24:44;;;;;;;136.20;128.48;;;;;;;;;;5042398;28;20513;-70
2024/01/07 11:27:12;;;;;;;136.57;128.65;;;;;;;;;;5032749;28;20429;-71
2024/01/07 11:29:39;;;;;;;138.45;130.65;;;;;;;;;;5043702;28;20428;-71
2024/01/07 11:32:06;;;;;;;133.23;125.47;;;;;;;;;;5044016;28;20452;-70
2024/01/07 11:34:42;;;;;;;139.95;131.95;;;;;;;;;;5039447;28;20912;-70
2024/01/07 11:37:13;;;;;;;129.80;122.10;;;;;;;;;;5041061;28;20435;-71
2024/01/07 11:39:44;;;;;;;136.07;128.48;;;;;;;;;;5032122;28;20429;-71
2024/01/07 11:42:11;;;;;;;142.35;134.25;;;;;;;;;;5038628;28;20489;-70
2024/01/07 11:44:45;;;;;;;131.88;124.18;;;;;;;;;;5039243;28;20436;-71
2024/01/07 11:47:12;;;;;;;137.48;129.45;;;;;;;;;;5033119;28;20478;-71
2024/01/07 11:49:39;;;;;;;141.73;133.82;;;;;;;;;;5040393;28;20559;-70
2024/01/07 11:52:08;;;;;;;136.40;128.75;;;;;;;;;;5036597;28;20729;-70
2024/01/07 11:54:35;;;;;;;129.98;122.68;;;;;;;;;;5031303;28;20433;-71
2024/01/07 11:57:03;;;;;;;140.35;132.52;;;;;;;;;;5034586;28;20432;-70
2024/01/07 11:59:30;;;;;;;138.10;130.27;;;;;;;;;;5032638;28;21114;-70
2024/01/07 12:02:01;;;;;;;137.50;129.80;;;;;;;;;;5044924;28;20512;-71
2024/01/07 12:04:28;;;;;;;141.80;133.70;;;;;;;;;;5043457;28;20433;-70
2024/01/07 12:06:55;;;;;;;134.52;126.85;;;;;;;;;;5037388;28;20539;-70
2024/01/07 12:09:23;;;;;;;146.82;138.63;;;;;;;;;;5037234;28;20896;-70
2024/01/07 12:11:50;;;;;;;172.80;163.43;;;;;;;;;;5041441;28;20540;-70
2024/01/07 12:14:17;;;;;;;184.45;174.45;;;;;;;;;;5028063;28;20430;-70
2024/01/07 12:16:49;;;;;;;176.00;166.40;;;;;;;;;;5034329;28;20433;-70
2024/01/07 12:19:17;;;;;;;137.25;129.50;;;;;;;;;;5043490;28;20437;-70
2024/01/07 12:21:47;;;;;;;142.85;134.80;;;;;;;;;;5039978;28;20455;-70
2024/01/07 12:24:15;;;;;;;141.48;133.38;;;;;;;;;;5035867;28;20435;-70
2024/01/07 12:26:43;;;;;;;118.10;111.00;;;;;;;;;;5041468;28;20438;-70
2024/01/07 12:29:12;;;;;;;142.43;134.20;;;;;;;;;;5038081;28;20447;-70
2024/01/07 12:31:44;;;;;;;140.98;132.82;;;;;;;;;;5034170;28;20521;-71
2024/01/07 12:34:11;;;;;;;153.48;144.55;;;;;;;;;;5036167;28;21072;-70
2024/01/07 12:36:39;;;;;;;144.07;135.65;;;;;;;;;;5046044;28;20425;-71
2024/01/07 12:39:07;;;;;;;148.70;140.07;;;;;;;;;;5037218;28;20991;-71
2024/01/07 12:41:34;;;;;;;149.50;140.50;;;;;;;;;;5036127;28;20467;-71
2024/01/07 12:44:01;;;;;;;163.65;154.45;;;;;;;;;;5032384;28;20431;-71
2024/01/07 12:46:28;;;;;;;146.52;138.25;;;;;;;;;;5041755;28;20964;-71
2024/01/07 12:48:59;;;;;;;147.88;139.23;;;;;;;;;;5037850;28;20531;-71
2024/01/07 12:51:27;;;;;;;163.20;153.93;;;;;;;;;;5033722;28;21194;-71
2024/01/07 12:53:56;;;;;;;153.50;144.65;;;;;;;;;;5032920;28;20435;-71
2024/01/07 12:56:23;;;;;;;161.60;152.70;;;;;;;;;;5040697;28;20429;-70
2024/01/07 12:58:50;;;;;;;145.40;136.63;;;;;;;;;;5036612;28;20430;-71
2024/01/07 13:01:18;;;;;;;155.90;146.80;;;;;;;;;;5038882;28;20433;-71
2024/01/07 13:03:45;;;;;;;155.55;146.48;;;;;;;;;;5036895;28;20429;-70
2024/01/07 13:06:12;;;;;;;157.27;148.13;;;;;;;;;;5032202;28;20902;-71
2024/01/07 13:08:40;;;;;;;154.90;145.90;;;;;;;;;;5035511;28;20965;-71
2024/01/07 13:11:08;;;;;;;149.55;141.05;;;;;;;;;;5042402;28;20451;-71
2024/01/07 13:13:36;;;;;;;158.88;149.65;;;;;;;;;;5030609;28;20438;-70
2024/01/07 13:16:03;;;;;;;153.27;144.30;;;;;;;;;;5035736;28;20934;-71
2024/01/07 13:18:30;;;;;;;141.73;133.73;;;;;;;;;;5044580;28;20456;-71
2024/01/07 13:20:58;;;;;;;153.60;144.77;;;;;;;;;;5039091;28;20433;-71
2024/01/07 13:23:26;;;;;;;153.63;144.90;;;;;;;;;;5032094;28;20427;-71
2024/01/07 13:25:53;;;;;;;146.50;138.27;;;;;;;;;;5040786;28;20515;-71
2024/01/07 13:28:20;;;;;;;144.00;135.65;;;;;;;;;;5040201;28;20437;-71
2024/01/07 13:30:49;;;;;;;146.93;138.45;;;;;;;;;;5046632;28;20491;-70
2024/01/07 13:33:19;;;;;;;154.23;145.43;;;;;;;;;;5038565;28;20433;-70
2024/01/07 13:35:47;;;;;;;138.20;130.10;;;;;;;;;;5031248;28;20531;-71
2024/01/07 13:38:17;;;;;;;152.75;144.00;;;;;;;;;;5040523;28;20442;-71
2024/01/07 13:40:44;;;;;;;151.20;142.48;;;;;;;;;;5040268;28;20448;-70
2024/01/07 13:43:11;;;;;;;145.20;136.80;;;;;;;;;;5034727;28;20431;-71
2024/01/07 13:45:39;;;;;;;156.25;147.27;;;;;;;;;;5035638;28;20429;-71
2024/01/07 13:48:07;;;;;;;134.13;126.43;;;;;;;;;;5042554;28;20430;-71
2024/01/07 13:50:35;;;;;;;162.32;153.02;;;;;;;;;;5035398;28;20444;-68
2024/01/07 13:53:02;;;;;;;158.10;148.93;;;;;;;;;;5036644;28;20431;-67
2024/01/07 13:55:30;;;;;;;145.50;137.18;;;;;;;;;;5039516;28;20441;-68
2024/01/07 13:57:57;;;;;;;152.23;143.57;;;;;;;;;;5031889;28;20437;-70
2024/01/07 14:00:24;;;;;;;157.18;148.25;;;;;;;;;;5042026;28;20437;-68
2024/01/07 14:02:54;;;;;;;171.55;161.45;;;;;;;;;;5034936;28;20421;-67